Time;durP1;ratioP1;P1;durP2;ratioP2;P2;SDS_P1;SDS_P2;PMS_P1;PMS_P2;Temp;Humidity;BMP_temperature;BMP_pressure;BME280_temperature;BME280_humidity;BME280_pressure;Samples;Min_cycle;Max_cycle;Signal;HPM_P1;HPM_P2
2023/10/07 00:01:52;;;;;;;8.68;5.82;;;16.00;99.90;;;;;;6242304;23;20003;-75
2023/10/07 00:04:18;;;;;;;10.63;4.97;;;16.00;99.90;;;;;;6242361;23;19996;-74
2023/10/07 00:06:45;;;;;;;13.90;5.97;;;16.00;99.90;;;;;;6241662;23;20054;-75
2023/10/07 00:09:12;;;;;;;11.30;5.35;;;16.00;99.90;;;;;;6241972;23;19996;-75
2023/10/07 00:11:38;;;;;;;9.00;5.35;;;16.00;99.90;;;;;;6214943;23;20058;-75
2023/10/07 00:14:09;;;;;;;9.93;5.45;;;16.00;99.90;;;;;;6242198;23;20012;-75
2023/10/07 00:16:36;;;;;;;11.60;5.32;;;16.00;99.90;;;;;;6242361;23;20044;-75
2023/10/07 00:19:03;;;;;;;10.07;5.60;;;16.10;99.90;;;;;;6214959;23;20011;-75
2023/10/07 00:21:52;;;;;;;9.20;5.57;;;16.10;99.90;;;;;;6214996;23;20008;-74
2023/10/07 00:24:16;;;;;;;12.40;5.50;;;16.10;99.90;;;;;;6239483;23;20086;-76
2023/10/07 00:26:43;;;;;;;12.52;6.05;;;16.10;99.90;;;;;;6237301;23;20087;-75
2023/10/07 00:29:12;;;;;;;9.40;4.93;;;16.10;99.90;;;;;;6238685;23;20007;-75
2023/10/07 00:31:40;;;;;;;13.18;6.13;;;16.20;99.90;;;;;;6211051;23;20456;-74
2023/10/07 00:34:14;;;;;;;14.75;6.90;;;16.20;99.90;;;;;;6238429;23;20613;-75
2023/10/07 00:39:09;;;;;;;10.80;6.57;;;16.20;99.90;;;;;;6237869;23;20008;-75
2023/10/07 00:42:22;;;;;;;12.50;6.80;;;16.20;99.90;;;;;;6211080;23;20445;-74
2023/10/07 00:44:33;;;;;;;11.48;6.28;;;16.20;99.90;;;;;;6225912;23;20008;-75
2023/10/07 00:49:43;;;;;;;11.57;6.50;;;16.10;99.90;;;;;;6239121;23;20012;-75
2023/10/07 00:52:24;;;;;;;9.02;5.47;;;16.10;99.90;;;;;;6210525;23;20626;-75
2023/10/07 00:54:51;;;;;;;16.27;7.15;;;16.10;99.90;;;;;;6237611;23;20417;-75
2023/10/07 00:57:35;;;;;;;10.80;7.00;;;16.10;99.90;;;;;;6211291;23;20004;-75
2023/10/07 01:02:50;;;;;;;10.57;7.10;;;16.00;99.90;;;;;;6248273;23;20090;-75
2023/10/07 01:05:22;;;;;;;12.40;6.10;;;16.10;99.90;;;;;;6210556;23;20047;-75
2023/10/07 01:07:53;;;;;;;11.88;7.07;;;16.10;99.90;;;;;;6237408;23;20418;-75
2023/10/07 01:10:25;;;;;;;10.55;6.57;;;16.10;99.90;;;;;;6238048;23;20146;-75
2023/10/07 01:12:51;;;;;;;12.00;6.95;;;16.00;99.90;;;;;;6238051;23;20107;-75
2023/10/07 01:15:22;;;;;;;11.20;7.78;;;16.00;99.90;;;;;;6238224;23;20073;-75
2023/10/07 01:17:56;;;;;;;11.45;7.32;;;16.10;99.90;;;;;;6237931;23;20028;-75
2023/10/07 01:20:22;;;;;;;12.65;7.28;;;16.00;99.90;;;;;;6210505;23;20418;-75
2023/10/07 01:23:03;;;;;;;14.70;8.25;;;16.00;99.90;;;;;;6236735;23;20054;-75
2023/10/07 01:25:31;;;;;;;14.52;7.72;;;16.00;99.90;;;;;;6238335;23;20007;-75
2023/10/07 01:28:00;;;;;;;14.63;8.32;;;16.00;99.90;;;;;;6237661;23;20012;-75
2023/10/07 01:30:29;;;;;;;13.68;7.93;;;16.00;99.90;;;;;;6238621;23;20004;-76
2023/10/07 01:33:02;;;;;;;14.15;7.40;;;16.00;99.90;;;;;;6237870;23;20035;-75
2023/10/07 01:35:47;;;;;;;14.15;8.00;;;16.00;99.90;;;;;;6237661;23;20457;-75
2023/10/07 01:38:18;;;;;;;13.80;8.80;;;16.10;99.90;;;;;;6237714;23;20311;-76
2023/10/07 01:43:19;;;;;;;13.48;7.85;;;16.10;99.90;;;;;;6248284;23;20032;-73
2023/10/07 01:45:47;;;;;;;15.25;8.93;;;16.20;99.90;;;;;;6237721;23;20060;-74
2023/10/07 01:48:13;;;;;;;10.82;7.43;;;16.20;99.90;;;;;;6237120;23;20004;-74
2023/10/07 01:50:40;;;;;;;15.45;8.75;;;16.20;99.90;;;;;;6237295;23;20113;-74
2023/10/07 01:53:07;;;;;;;12.07;8.05;;;16.20;99.90;;;;;;6238944;23;20004;-73
2023/10/07 01:55:48;;;;;;;16.73;8.40;;;16.30;99.90;;;;;;6240895;23;20441;-74
2023/10/07 01:58:15;;;;;;;14.73;7.95;;;16.30;99.90;;;;;;6211880;23;20424;-73
2023/10/07 02:00:46;;;;;;;18.17;8.65;;;16.40;99.90;;;;;;6239766;23;20020;-74
2023/10/07 02:03:16;;;;;;;18.92;9.43;;;16.40;99.90;;;;;;6239954;23;20095;-74
2023/10/07 02:05:48;;;;;;;17.15;9.32;;;16.40;99.90;;;;;;6240788;23;20008;-75
2023/10/07 02:08:18;;;;;;;12.63;7.75;;;16.40;99.90;;;;;;6240725;23;20010;-75
2023/10/07 02:10:46;;;;;;;15.03;9.80;;;16.50;99.90;;;;;;6240596;23;20000;-75
2023/10/07 02:13:19;;;;;;;14.77;9.40;;;16.40;99.90;;;;;;6241197;23;20550;-75
2023/10/07 02:15:52;;;;;;;16.10;9.55;;;16.50;99.90;;;;;;6240682;23;20681;-74
2023/10/07 02:18:18;;;;;;;13.20;9.10;;;16.50;99.90;;;;;;6240692;23;20012;-75
2023/10/07 02:23:37;;;;;;;18.83;10.30;;;16.40;99.90;;;;;;6241859;23;20456;-75
2023/10/07 02:26:24;;;;;;;20.48;11.00;;;16.40;99.90;;;;;;6241284;23;20444;-75
2023/10/07 02:28:52;;;;;;;14.75;9.68;;;16.40;99.90;;;;;;6241414;23;20003;-75
2023/10/07 02:31:25;;;;;;;13.27;9.77;;;16.50;99.90;;;;;;6241678;23;20004;-75
2023/10/07 02:33:57;;;;;;;18.48;10.45;;;16.50;99.90;;;;;;6241133;23;20330;-75
2023/10/07 02:36:32;;;;;;;13.68;9.88;;;16.50;99.90;;;;;;6241403;23;20001;-75
2023/10/07 02:41:46;;;;;;;16.88;10.63;;;16.40;99.90;;;;;;6241011;23;20027;-75
2023/10/07 02:44:16;;;;;;;15.43;10.65;;;16.50;99.90;;;;;;6241456;23;20008;-75
2023/10/07 02:46:42;;;;;;;18.67;11.45;;;16.50;99.90;;;;;;6240786;23;20027;-75
2023/10/07 02:49:11;;;;;;;20.75;12.15;;;16.50;99.90;;;;;;6241342;23;20000;-74
2023/10/07 02:51:45;;;;;;;14.88;10.07;;;16.50;99.90;;;;;;6241433;23;20076;-75
2023/10/07 02:54:18;;;;;;;16.05;11.13;;;16.50;99.90;;;;;;6241049;23;20409;-75
2023/10/07 02:57:39;;;;;;;23.42;11.63;;;16.50;99.90;;;;;;6241177;23;20490;-75
2023/10/07 02:59:50;;;;;;;18.88;11.90;;;16.50;99.90;;;;;;6225301;23;20030;-75
2023/10/07 03:04:58;;;;;;;18.70;12.18;;;16.50;99.90;;;;;;6241708;23;20437;-75
2023/10/07 03:07:25;;;;;;;22.50;13.13;;;16.50;99.90;;;;;;6241428;23;20030;-75
2023/10/07 03:10:04;;;;;;;21.52;13.00;;;16.50;99.90;;;;;;6240985;23;20000;-75
2023/10/07 03:12:30;;;;;;;19.67;12.35;;;16.50;99.90;;;;;;6212139;23;20009;-75
2023/10/07 03:14:59;;;;;;;18.40;13.20;;;16.50;99.90;;;;;;6237553;23;20004;-75
2023/10/07 03:17:33;;;;;;;16.58;12.32;;;16.50;99.90;;;;;;6238620;23;20031;-75
2023/10/07 03:20:27;;;;;;;20.00;12.88;;;16.50;99.90;;;;;;6238851;23;20004;-75
2023/10/07 03:25:47;;;;;;;15.77;10.80;;;16.50;99.90;;;;;;6238859;23;20015;-75
2023/10/07 03:28:16;;;;;;;18.50;11.43;;;16.50;99.90;;;;;;6239990;23;20079;-75
2023/10/07 03:30:57;;;;;;;17.90;11.95;;;16.50;99.90;;;;;;6240567;23;20011;-75
2023/10/07 03:33:42;;;;;;;20.20;14.10;;;16.60;99.90;;;;;;6214343;23;20054;-75
2023/10/07 03:36:16;;;;;;;20.23;13.43;;;16.60;99.90;;;;;;6241036;23;20011;-75
2023/10/07 03:38:42;;;;;;;20.20;13.00;;;16.50;99.90;;;;;;6240651;23;20004;-75
2023/10/07 03:41:09;;;;;;;23.52;13.10;;;16.60;99.90;;;;;;6240351;23;20174;-75
2023/10/07 03:43:37;;;;;;;22.05;12.85;;;16.60;99.90;;;;;;6240972;23;20058;-75
2023/10/07 03:46:03;;;;;;;20.85;13.38;;;16.60;99.90;;;;;;6241483;23;20075;-75
2023/10/07 03:48:31;;;;;;;21.63;14.95;;;16.60;99.90;;;;;;6243494;23;20027;-75
2023/10/07 03:51:16;;;;;;;19.77;12.77;;;16.60;99.90;;;;;;6242634;23;20322;-75
2023/10/07 03:53:44;;;;;;;23.02;13.48;;;16.60;99.90;;;;;;6242512;23;20344;-75
2023/10/07 03:56:17;;;;;;;21.65;14.73;;;16.70;99.90;;;;;;6242742;23;20004;-75
2023/10/07 03:58:43;;;;;;;19.67;12.90;;;16.70;99.90;;;;;;6242349;23;20007;-75
2023/10/07 04:01:18;;;;;;;22.40;14.60;;;16.70;99.90;;;;;;6242663;23;20015;-75
2023/10/07 04:03:49;;;;;;;20.58;14.02;;;16.70;99.90;;;;;;6243190;23;20000;-75
2023/10/07 04:06:25;;;;;;;18.45;14.25;;;16.70;99.90;;;;;;6243111;23;20046;-75
2023/10/07 04:08:56;;;;;;;17.95;12.55;;;16.70;99.90;;;;;;6242637;23;20006;-75
2023/10/07 04:11:28;;;;;;;25.23;15.35;;;16.70;99.90;;;;;;6243017;23;20008;-75
2023/10/07 04:13:55;;;;;;;18.35;13.88;;;16.70;99.90;;;;;;6241918;23;20070;-75
2023/10/07 04:16:24;;;;;;;21.48;13.68;;;16.70;99.90;;;;;;6242918;23;20003;-75
2023/10/07 04:18:53;;;;;;;19.77;14.13;;;16.70;99.90;;;;;;6242704;23;20004;-75
2023/10/07 04:21:20;;;;;;;18.77;13.95;;;16.80;99.90;;;;;;6242665;23;20311;-75
2023/10/07 04:23:46;;;;;;;23.45;14.25;;;16.80;99.90;;;;;;6242398;23;20008;-75
2023/10/07 04:26:19;;;;;;;26.45;13.93;;;16.70;99.90;;;;;;6242748;23;20023;-75
2023/10/07 04:28:48;;;;;;;20.90;14.07;;;16.80;99.90;;;;;;6241880;23;19996;-75
2023/10/07 04:31:16;;;;;;;18.92;12.20;;;16.80;99.90;;;;;;6242533;23;20004;-75
2023/10/07 04:33:53;;;;;;;20.75;13.18;;;16.80;99.90;;;;;;6242691;23;20109;-75
2023/10/07 04:36:31;;;;;;;19.08;13.23;;;16.80;99.90;;;;;;6242415;23;20000;-74
2023/10/07 04:38:57;;;;;;;18.75;13.00;;;16.80;99.90;;;;;;6242245;23;19996;-75
2023/10/07 04:43:54;;;;;;;25.02;14.27;;;16.80;99.90;;;;;;6242231;23;20051;-74
2023/10/07 04:46:23;;;;;;;19.10;14.73;;;16.80;99.90;;;;;;6242618;23;20026;-75
2023/10/07 04:48:56;;;;;;;21.98;14.05;;;16.80;99.90;;;;;;6242481;23;20062;-75
2023/10/07 04:51:46;;;;;;;20.52;15.02;;;16.80;99.90;;;;;;6239913;23;20841;-75
2023/10/07 04:54:13;;;;;;;22.23;14.95;;;16.80;99.90;;;;;;6241172;23;20047;-75
2023/10/07 04:56:47;;;;;;;25.17;14.23;;;16.80;99.90;;;;;;6240691;23;20363;-75
2023/10/07 04:59:13;;;;;;;19.05;13.05;;;16.80;99.90;;;;;;6242358;23;20053;-75
2023/10/07 05:01:41;;;;;;;18.38;12.60;;;16.80;99.90;;;;;;6241934;23;20417;-75
2023/10/07 05:04:15;;;;;;;18.85;13.52;;;16.80;99.90;;;;;;6241936;23;20031;-75
2023/10/07 05:06:42;;;;;;;18.40;14.02;;;16.80;99.90;;;;;;6242542;23;20031;-75
2023/10/07 05:09:09;;;;;;;15.57;12.07;;;16.80;99.90;;;;;;6241907;23;20028;-75
2023/10/07 05:11:40;;;;;;;22.40;14.93;;;16.80;99.90;;;;;;6242040;23;20007;-75
2023/10/07 05:14:21;;;;;;;22.27;15.38;;;16.80;99.90;;;;;;6241081;23;20369;-75
2023/10/07 05:16:47;;;;;;;21.10;14.43;;;16.80;99.90;;;;;;6241854;23;20000;-75
2023/10/07 05:19:21;;;;;;;20.52;15.13;;;16.80;99.90;;;;;;6241987;23;20058;-75
2023/10/07 05:21:58;;;;;;;23.95;15.40;;;16.80;99.90;;;;;;6241908;23;20079;-75
2023/10/07 05:24:28;;;;;;;20.98;15.82;;;16.80;99.90;;;;;;6242478;23;20010;-75
2023/10/07 05:26:55;;;;;;;21.80;16.40;;;16.80;99.90;;;;;;6214465;23;20000;-75
2023/10/07 05:29:20;;;;;;;21.80;14.73;;;16.80;99.90;;;;;;6242123;23;20000;-75
2023/10/07 05:31:46;;;;;;;23.88;16.08;;;16.80;99.90;;;;;;6241538;23;20007;-75
2023/10/07 05:34:11;;;;;;;26.35;16.40;;;16.80;99.90;;;;;;6241874;23;20042;-75
2023/10/07 05:36:38;;;;;;;24.33;18.52;;;16.80;99.90;;;;;;6242109;23;20465;-75
2023/10/07 05:39:07;;;;;;;25.02;17.05;;;16.80;99.90;;;;;;6241924;23;20004;-75
2023/10/07 05:41:33;;;;;;;22.05;15.95;;;16.80;99.90;;;;;;6241472;23;20323;-75
2023/10/07 05:43:59;;;;;;;25.77;17.25;;;16.80;99.90;;;;;;6241502;23;20034;-75
2023/10/07 05:46:24;;;;;;;20.65;16.67;;;16.80;99.90;;;;;;6241813;23;20004;-75
2023/10/07 05:48:51;;;;;;;19.50;15.15;;;16.80;99.90;;;;;;6241779;23;20333;-75
2023/10/07 05:51:17;;;;;;;22.23;16.92;;;16.80;99.90;;;;;;6241426;23;20035;-75
2023/10/07 05:53:48;;;;;;;20.77;15.40;;;16.80;99.90;;;;;;6241609;23;20384;-75
2023/10/07 05:56:14;;;;;;;22.92;17.52;;;16.80;99.90;;;;;;6240890;23;20004;-75
2023/10/07 05:58:43;;;;;;;27.80;20.70;;;16.80;99.90;;;;;;6241591;23;20071;-75
2023/10/07 06:01:11;;;;;;;27.17;19.45;;;16.90;99.90;;;;;;6241294;23;20007;-75
2023/10/07 06:03:37;;;;;;;27.15;19.73;;;16.90;99.90;;;;;;6242237;23;20012;-75
2023/10/07 06:06:04;;;;;;;23.30;18.20;;;16.90;99.90;;;;;;6241083;23;20075;-75
2023/10/07 06:08:32;;;;;;;31.77;18.33;;;16.90;99.90;;;;;;6241724;23;20042;-74
2023/10/07 06:10:59;;;;;;;25.83;19.20;;;17.00;99.90;;;;;;6240457;23;20000;-75
2023/10/07 06:13:28;;;;;;;25.30;18.13;;;17.00;99.90;;;;;;6241536;23;20000;-75
2023/10/07 06:15:55;;;;;;;27.77;20.08;;;17.00;99.90;;;;;;6241245;23;20008;-75
2023/10/07 06:18:22;;;;;;;30.77;19.42;;;17.10;99.90;;;;;;6241542;23;20269;-75
2023/10/07 06:20:48;;;;;;;24.50;18.88;;;17.10;99.90;;;;;;6241392;23;20000;-75
2023/10/07 06:23:14;;;;;;;23.38;17.00;;;17.10;99.90;;;;;;6241239;23;20079;-75
2023/10/07 06:25:51;;;;;;;26.08;17.90;;;17.20;99.90;;;;;;6240670;23;20058;-76
2023/10/07 06:34:11;;;;;;;18.50;14.50;;;17.30;99.90;;;;;;6241391;23;20015;-75
2023/10/07 06:36:37;;;;;;;27.33;17.05;;;17.30;99.90;;;;;;6214794;23;20008;-75
2023/10/07 06:39:05;;;;;;;24.92;16.90;;;17.30;99.90;;;;;;6240607;23;20079;-74
2023/10/07 06:41:33;;;;;;;30.77;18.85;;;17.30;99.90;;;;;;6241453;23;20016;-75
2023/10/07 06:44:02;;;;;;;22.40;15.88;;;17.40;99.90;;;;;;6214079;23;20011;-75
2023/10/07 06:46:29;;;;;;;23.73;16.52;;;17.40;99.90;;;;;;6241687;23;20079;-75
2023/10/07 06:48:56;;;;;;;23.45;16.33;;;17.40;99.90;;;;;;6241150;23;20079;-75
2023/10/07 06:51:23;;;;;;;29.73;16.10;;;17.50;99.90;;;;;;6241030;23;20051;-75
2023/10/07 06:53:49;;;;;;;25.27;16.15;;;17.50;99.90;;;;;;6240708;23;20024;-74
2023/10/07 06:56:21;;;;;;;27.30;17.30;;;17.60;99.90;;;;;;6240985;23;20252;-75
2023/10/07 06:58:54;;;;;;;21.10;16.00;;;17.60;99.90;;;;;;6240880;23;20011;-75
2023/10/07 07:01:35;;;;;;;24.08;15.02;;;17.70;99.90;;;;;;6241718;23;20006;-75
2023/10/07 07:04:09;;;;;;;23.25;16.17;;;17.80;99.90;;;;;;6240842;23;20046;-75
2023/10/07 07:06:42;;;;;;;19.83;14.63;;;17.80;99.90;;;;;;6241709;23;20105;-75
2023/10/07 07:11:58;;;;;;;28.02;15.77;;;17.90;99.90;;;;;;6240715;23;20404;-75
2023/10/07 07:14:28;;;;;;;25.02;14.95;;;17.90;99.90;;;;;;6214301;23;20011;-75
2023/10/07 07:16:56;;;;;;;23.67;16.33;;;18.00;99.90;;;;;;6240854;23;20307;-75
2023/10/07 07:19:24;;;;;;;23.50;15.55;;;18.00;99.90;;;;;;6241298;23;20392;-75
2023/10/07 07:21:50;;;;;;;23.15;14.85;;;18.00;99.90;;;;;;6242365;23;20394;-75
2023/10/07 07:24:23;;;;;;;23.48;14.93;;;18.00;99.90;;;;;;6216092;23;20015;-75
2023/10/07 07:26:52;;;;;;;22.60;14.05;;;18.00;99.90;;;;;;6243201;23;20051;-75
2023/10/07 07:29:24;;;;;;;21.38;13.82;;;18.00;99.90;;;;;;6243241;23;20004;-75
2023/10/07 07:31:50;;;;;;;19.00;13.03;;;18.10;99.90;;;;;;6243022;23;20008;-75
2023/10/07 07:34:26;;;;;;;23.80;14.23;;;18.00;99.90;;;;;;6243169;23;20007;-75
2023/10/07 07:37:04;;;;;;;21.17;12.27;;;18.10;99.90;;;;;;6242323;23;20430;-76
2023/10/07 07:39:30;;;;;;;17.17;12.20;;;18.10;99.90;;;;;;6243434;23;20042;-75
2023/10/07 07:42:15;;;;;;;21.88;12.70;;;18.20;99.90;;;;;;6242561;23;20016;-75
2023/10/07 07:44:55;;;;;;;23.88;13.02;;;18.10;99.90;;;;;;6242796;23;20437;-76
2023/10/07 07:47:21;;;;;;;24.00;12.38;;;18.20;99.90;;;;;;6243173;23;19992;-75
2023/10/07 07:49:47;;;;;;;20.45;12.77;;;18.20;99.90;;;;;;6242821;23;19996;-75
2023/10/07 07:52:15;;;;;;;18.83;13.23;;;18.20;99.90;;;;;;6242371;23;20035;-75
2023/10/07 07:54:41;;;;;;;22.13;13.05;;;18.30;99.90;;;;;;6215947;23;20010;-75
2023/10/07 07:57:12;;;;;;;21.00;14.10;;;18.30;99.90;;;;;;6242803;23;20050;-75
2023/10/07 07:59:38;;;;;;;20.92;14.23;;;18.20;99.90;;;;;;6216208;23;20008;-75
2023/10/07 08:02:14;;;;;;;24.33;13.52;;;18.20;99.90;;;;;;6242620;23;20087;-75
2023/10/07 08:04:46;;;;;;;20.10;12.77;;;18.20;99.90;;;;;;6243170;23;20004;-74
2023/10/07 08:07:19;;;;;;;21.65;14.63;;;18.10;99.90;;;;;;6215255;23;20011;-75
2023/10/07 08:09:46;;;;;;;;;;;18.10;99.90;;;;;;6243321;23;19997;-75
2023/10/07 08:12:18;;;;;;;19.10;14.07;;;18.00;99.90;;;;;;6242628;23;19919;-74
2023/10/07 08:14:46;;;;;;;19.17;14.95;;;18.00;99.90;;;;;;6242759;23;20000;-75
2023/10/07 08:17:15;;;;;;;17.88;12.65;;;18.00;99.90;;;;;;6242747;23;20054;-74
2023/10/07 08:19:40;;;;;;;19.55;13.57;;;18.00;99.90;;;;;;6242486;23;19996;-75
2023/10/07 08:22:16;;;;;;;19.17;13.07;;;18.10;99.90;;;;;;6242609;23;20000;-75
2023/10/07 08:24:41;;;;;;;21.02;15.70;;;18.10;99.90;;;;;;6242605;23;20050;-75
2023/10/07 08:27:43;;;;;;;18.85;14.82;;;18.10;99.90;;;;;;6242551;23;20000;-74
2023/10/07 08:29:55;;;;;;;18.92;14.70;;;18.10;99.90;;;;;;6241820;23;20007;-75
2023/10/07 08:32:35;;;;;;;17.08;12.73;;;18.20;99.90;;;;;;6242225;23;20004;-75
2023/10/07 08:35:03;;;;;;;20.35;14.27;;;18.20;99.90;;;;;;6241322;23;20429;-75
2023/10/07 08:37:32;;;;;;;19.98;12.38;;;18.30;99.90;;;;;;6242746;23;20000;-75
2023/10/07 08:40:15;;;;;;;18.77;13.77;;;18.40;99.90;;;;;;6241998;23;20220;-75
2023/10/07 08:42:47;;;;;;;19.93;13.87;;;18.50;99.90;;;;;;6242234;23;20023;-75
2023/10/07 08:45:15;;;;;;;18.85;13.45;;;18.50;99.90;;;;;;6242401;23;20000;-75
2023/10/07 08:47:49;;;;;;;19.33;13.50;;;18.60;99.90;;;;;;6242161;23;20062;-75
2023/10/07 08:50:19;;;;;;;13.18;10.80;;;18.70;99.90;;;;;;6241928;23;20001;-74
2023/10/07 08:52:44;;;;;;;16.73;12.40;;;18.80;99.90;;;;;;6241791;23;20048;-75
2023/10/07 08:55:10;;;;;;;18.33;12.77;;;18.80;99.90;;;;;;6242378;23;20011;-75
2023/10/07 08:57:36;;;;;;;17.88;12.18;;;18.90;99.90;;;;;;6242650;23;20008;-74
2023/10/07 09:00:11;;;;;;;19.83;12.10;;;19.00;99.90;;;;;;6214943;23;20007;-75
2023/10/07 09:02:39;;;;;;;16.60;12.35;;;19.00;99.90;;;;;;6243098;23;20004;-75
2023/10/07 09:05:16;;;;;;;18.48;13.20;;;19.10;99.90;;;;;;6241624;23;20004;-75
2023/10/07 09:07:48;;;;;;;19.60;12.75;;;19.10;99.90;;;;;;6241998;23;20397;-74
2023/10/07 09:10:15;;;;;;;18.15;12.50;;;19.20;99.90;;;;;;6241906;23;20006;-75
2023/10/07 09:12:50;;;;;;;11.57;10.25;;;19.30;99.90;;;;;;6242133;23;20135;-75
2023/10/07 09:15:26;;;;;;;18.92;10.27;;;19.30;99.90;;;;;;6241985;23;20086;-74
2023/10/07 09:18:03;;;;;;;16.42;11.85;;;19.40;99.90;;;;;;6241010;23;20003;-74
2023/10/07 09:20:29;;;;;;;15.27;11.40;;;19.40;99.90;;;;;;6215666;23;20003;-75
2023/10/07 09:23:20;;;;;;;16.50;11.43;;;19.40;99.90;;;;;;6241454;23;20092;-76
2023/10/07 09:25:52;;;;;;;14.38;11.27;;;19.40;99.90;;;;;;6241227;23;20008;-75
2023/10/07 09:28:27;;;;;;;14.45;11.07;;;19.30;99.90;;;;;;6241974;23;20422;-75
2023/10/07 09:30:55;;;;;;;14.23;10.88;;;19.30;99.90;;;;;;6241691;23;20075;-75
2023/10/07 09:33:21;;;;;;;13.65;11.27;;;19.30;99.90;;;;;;6241467;23;20008;-75
2023/10/07 09:36:00;;;;;;;16.52;11.85;;;19.40;99.90;;;;;;6242293;23;20008;-75
2023/10/07 09:38:43;;;;;;;13.13;10.45;;;19.40;99.90;;;;;;6242066;23;19996;-75
2023/10/07 09:41:12;;;;;;;13.40;11.68;;;19.40;99.90;;;;;;6241622;23;20016;-75
2023/10/07 09:43:47;;;;;;;16.10;10.77;;;19.40;99.90;;;;;;6241740;23;20004;-75
2023/10/07 09:46:24;;;;;;;13.55;9.57;;;19.60;99.90;;;;;;6241760;23;20015;-75
2023/10/07 09:48:51;;;;;;;13.00;9.32;;;19.70;99.90;;;;;;6241598;23;20000;-75
2023/10/07 09:51:28;;;;;;;14.82;10.00;;;19.70;99.90;;;;;;6241913;23;20000;-75
2023/10/07 09:54:06;;;;;;;12.18;8.48;;;19.80;99.90;;;;;;6240451;23;19996;-75
2023/10/07 09:56:43;;;;;;;15.13;9.23;;;19.90;99.90;;;;;;6241310;23;20484;-75
2023/10/07 09:59:48;;;;;;;12.35;9.07;;;19.90;99.90;;;;;;6241458;23;20389;-75
2023/10/07 10:02:26;;;;;;;16.85;9.02;;;20.00;99.90;;;;;;6194090;23;20008;-75
2023/10/07 10:05:12;;;;;;;15.77;9.57;;;20.00;99.90;;;;;;6241587;23;20027;-75
2023/10/07 10:07:56;;;;;;;18.52;10.27;;;20.10;99.90;;;;;;6241715;23;20035;-75
2023/10/07 10:10:31;;;;;;;13.95;7.57;;;20.10;99.90;;;;;;6241740;23;20058;-75
2023/10/07 10:18:05;;;;;;;14.15;8.10;;;20.30;99.90;;;;;;6251462;23;20038;-75
2023/10/07 10:20:44;;;;;;;14.85;8.35;;;20.30;99.90;;;;;;6241563;23;19996;-75
2023/10/07 10:23:20;;;;;;;10.52;6.57;;;20.40;99.90;;;;;;6214639;23;20083;-75
2023/10/07 10:25:51;;;;;;;11.15;7.63;;;20.40;99.90;;;;;;6241243;23;20016;-75
2023/10/07 10:28:35;;;;;;;10.93;6.97;;;20.40;99.90;;;;;;6241457;23;20004;-75
2023/10/07 10:31:00;;;;;;;15.35;7.78;;;20.50;99.90;;;;;;6240589;23;20315;-75
2023/10/07 10:33:28;;;;;;;11.70;7.85;;;20.50;99.90;;;;;;6241609;23;20000;-75
2023/10/07 10:35:57;;;;;;;12.25;7.18;;;20.50;99.90;;;;;;6241348;23;20000;-75
2023/10/07 10:38:45;;;;;;;13.10;7.78;;;20.50;99.90;;;;;;6241457;23;19997;-75
2023/10/07 10:41:11;;;;;;;13.88;7.55;;;20.50;99.90;;;;;;6240966;22;20443;-75
2023/10/07 10:43:37;;;;;;;21.17;7.65;;;20.50;99.90;;;;;;6241585;23;20000;-75
2023/10/07 10:46:07;;;;;;;13.52;6.78;;;20.50;99.90;;;;;;6240298;23;20003;-75
2023/10/07 10:48:38;;;;;;;13.40;7.35;;;20.50;99.90;;;;;;6241544;23;20456;-75
2023/10/07 10:51:05;;;;;;;14.13;6.57;;;20.40;99.90;;;;;;6240520;23;20075;-75
2023/10/07 10:53:35;;;;;;;11.38;7.15;;;20.40;99.90;;;;;;6241706;23;20000;-75
2023/10/07 10:56:02;;;;;;;14.32;7.05;;;20.40;99.90;;;;;;6240248;23;20004;-76
2023/10/07 10:58:27;;;;;;;11.82;5.88;;;20.40;99.90;;;;;;6214681;23;20004;-75
2023/10/07 11:00:54;;;;;;;11.38;6.93;;;20.50;99.90;;;;;;6240173;23;20406;-75
2023/10/07 11:03:23;;;;;;;8.93;6.35;;;20.60;99.90;;;;;;6241268;23;20000;-75
2023/10/07 11:05:56;;;;;;;13.18;7.28;;;20.60;99.90;;;;;;6241013;23;20080;-75
2023/10/07 11:08:23;;;;;;;10.60;5.85;;;20.60;99.70;;;;;;6241077;23;20055;-75
2023/10/07 11:10:53;;;;;;;12.82;6.88;;;20.60;99.80;;;;;;6241224;23;20004;-78
2023/10/07 11:13:20;;;;;;;11.13;6.47;;;20.70;99.80;;;;;;6240730;23;20004;-78
2023/10/07 11:16:09;;;;;;;18.80;7.93;;;20.80;99.80;;;;;;6214356;23;20485;-78
2023/10/07 11:18:37;;;;;;;13.23;6.32;;;20.90;99.60;;;;;;6214784;23;20333;-78
2023/10/07 11:21:09;;;;;;;11.07;6.85;;;20.90;99.50;;;;;;6240992;23;20437;-78
2023/10/07 11:24:03;;;;;;;14.18;6.55;;;20.90;99.30;;;;;;6241842;23;20008;-78
2023/10/07 11:26:32;;;;;;;14.88;8.38;;;20.90;99.30;;;;;;6214668;23;20088;-78
2023/10/07 11:28:58;;;;;;;15.15;6.95;;;20.90;99.30;;;;;;6240434;23;20207;-79
2023/10/07 11:31:31;;;;;;;13.55;7.18;;;20.80;99.20;;;;;;6241066;23;20329;-78
2023/10/07 11:33:59;;;;;;;12.80;5.82;;;20.90;99.20;;;;;;6240888;23;20008;-78
2023/10/07 11:36:25;;;;;;;11.77;5.95;;;20.90;99.40;;;;;;6241223;23;20023;-78
2023/10/07 11:38:50;;;;;;;13.82;5.82;;;20.90;99.50;;;;;;6214053;23;20438;-79
2023/10/07 11:41:16;;;;;;;10.43;5.45;;;21.00;99.40;;;;;;6240920;23;20089;-78
2023/10/07 11:43:47;;;;;;;13.55;6.25;;;21.00;99.30;;;;;;6240489;23;20004;-78
2023/10/07 11:46:13;;;;;;;12.82;6.55;;;21.10;99.40;;;;;;6241251;23;19996;-78
2023/10/07 11:48:41;;;;;;;16.40;6.40;;;21.20;99.50;;;;;;6241148;23;20003;-78
2023/10/07 11:51:07;;;;;;;12.23;5.57;;;21.20;99.40;;;;;;6214183;23;20008;-79
2023/10/07 11:53:33;;;;;;;12.10;6.43;;;21.30;99.30;;;;;;6241741;23;20374;-78
2023/10/07 11:55:58;;;;;;;13.93;5.40;;;21.40;99.30;;;;;;6240805;23;20008;-78
2023/10/07 11:58:24;;;;;;;17.27;5.40;;;21.40;99.30;;;;;;6240562;23;19996;-78
2023/10/07 12:00:50;;;;;;;13.32;4.63;;;21.50;99.10;;;;;;6240794;23;20019;-79
2023/10/07 12:03:17;;;;;;;11.52;4.40;;;21.60;99.10;;;;;;6241089;23;20027;-79
2023/10/07 12:05:43;;;;;;;13.75;5.10;;;21.60;99.00;;;;;;6241383;23;20016;-78
2023/10/07 12:08:11;;;;;;;13.32;4.70;;;21.70;98.90;;;;;;6242861;23;20005;-78
2023/10/07 12:10:38;;;;;;;11.73;4.40;;;21.70;98.70;;;;;;6243290;23;20379;-81
2023/10/07 12:13:11;;;;;;;12.90;5.25;;;21.80;98.60;;;;;;6214851;23;20008;-76
2023/10/07 12:15:42;;;;;;;12.55;4.60;;;21.80;98.50;;;;;;6216085;23;20004;-75
2023/10/07 12:18:12;;;;;;;10.23;4.80;;;21.80;98.30;;;;;;6242454;23;20073;-77
2023/10/07 12:20:39;;;;;;;15.20;5.22;;;21.80;98.30;;;;;;6215187;23;20028;-77
2023/10/07 12:23:04;;;;;;;9.13;4.57;;;21.90;98.20;;;;;;6215650;23;20087;-76
2023/10/07 12:25:31;;;;;;;13.20;4.65;;;21.90;98.30;;;;;;6242941;23;20078;-75
2023/10/07 12:27:56;;;;;;;11.05;4.35;;;22.00;98.20;;;;;;6241913;23;20070;-76
2023/10/07 12:30:22;;;;;;;12.40;5.47;;;22.10;98.10;;;;;;6215611;23;20038;-75
2023/10/07 12:32:52;;;;;;;11.57;5.13;;;22.20;97.80;;;;;;6242288;23;20000;-75
2023/10/07 12:35:18;;;;;;;12.63;4.60;;;22.30;97.80;;;;;;6242271;23;20046;-75
2023/10/07 12:37:47;;;;;;;14.93;5.88;;;22.30;97.60;;;;;;6242497;23;20418;-75
2023/10/07 12:40:14;;;;;;;10.85;4.68;;;22.30;97.40;;;;;;6242154;23;20000;-75
2023/10/07 12:42:41;;;;;;;10.15;4.85;;;22.20;97.30;;;;;;6241264;23;20309;-75
2023/10/07 12:45:09;;;;;;;12.00;4.53;;;22.30;97.50;;;;;;6241491;23;20004;-75
2023/10/07 12:47:34;;;;;;;11.13;5.07;;;22.30;97.50;;;;;;6242290;23;20377;-75
2023/10/07 12:50:20;;;;;;;11.95;4.95;;;22.20;97.50;;;;;;6242156;23;20038;-75
2023/10/07 12:52:58;;;;;;;15.30;4.90;;;22.20;97.60;;;;;;6215239;23;20008;-75
2023/10/07 12:55:31;;;;;;;10.70;4.72;;;22.20;97.70;;;;;;6241949;23;20075;-75
2023/10/07 12:58:05;;;;;;;10.15;4.32;;;22.20;97.70;;;;;;6214894;23;20193;-75
2023/10/07 13:00:33;;;;;;;11.23;4.53;;;22.30;97.80;;;;;;6215844;23;19996;-75
2023/10/07 13:03:04;;;;;;;9.95;4.35;;;22.40;97.70;;;;;;6215234;23;20015;-74
2023/10/07 13:05:33;;;;;;;9.63;4.50;;;22.50;97.40;;;;;;6242104;23;20008;-75
2023/10/07 13:07:59;;;;;;;11.45;5.13;;;22.50;97.30;;;;;;6241876;23;20422;-75
2023/10/07 13:10:26;;;;;;;14.50;4.63;;;22.50;97.00;;;;;;6214200;23;20012;-75
2023/10/07 13:12:55;;;;;;;13.50;5.05;;;22.50;96.80;;;;;;6239963;23;20004;-75
2023/10/07 13:15:30;;;;;;;9.60;4.70;;;22.50;96.70;;;;;;6240078;23;20010;-75
2023/10/07 13:18:01;;;;;;;10.68;4.50;;;22.40;96.60;;;;;;6213138;23;20001;-74
2023/10/07 13:20:27;;;;;;;13.60;4.65;;;22.40;96.40;;;;;;6240879;23;19996;-75
2023/10/07 13:22:55;;;;;;;14.65;4.72;;;22.30;96.60;;;;;;6240290;23;20019;-75
2023/10/07 13:25:21;;;;;;;15.60;5.50;;;22.40;96.70;;;;;;6240878;23;20011;-75
2023/10/07 13:27:47;;;;;;;11.55;5.63;;;22.30;96.70;;;;;;6213871;23;20008;-74
2023/10/07 13:30:15;;;;;;;15.43;5.63;;;22.40;96.70;;;;;;6242127;23;20087;-74